createdAt,value
2022-11-04T00:02:05.290Z,12.48
2022-11-04T00:04:31.734Z,12.43
2022-11-04T00:06:58.195Z,12.40
2022-11-04T00:09:26.083Z,12.39
2022-11-04T00:12:11.289Z,12.38
2022-11-04T00:14:37.763Z,12.33
2022-11-04T00:17:19.581Z,12.35
2022-11-04T00:20:05.563Z,12.31
2022-11-04T00:22:50.612Z,12.32
2022-11-04T00:25:35.446Z,12.32
2022-11-04T00:28:21.726Z,12.30
2022-11-04T00:30:48.192Z,12.32
2022-11-04T00:33:26.887Z,12.35
2022-11-04T00:35:57.215Z,12.34
2022-11-04T00:38:24.550Z,12.38
2022-11-04T00:40:51.100Z,12.41
2022-11-04T00:43:17.448Z,12.42
2022-11-04T00:45:43.831Z,12.41
2022-11-04T00:48:11.358Z,12.38
2022-11-04T00:50:37.872Z,12.38
2022-11-04T00:53:04.468Z,12.38
2022-11-04T00:55:30.755Z,12.40
2022-11-04T00:57:58.002Z,12.41
2022-11-04T01:00:24.453Z,12.41
2022-11-04T01:02:55.640Z,12.42
2022-11-04T01:05:21.951Z,12.41
2022-11-04T01:07:48.246Z,12.38
2022-11-04T01:10:14.590Z,12.38
2022-11-04T01:12:40.998Z,12.38
2022-11-04T01:15:07.574Z,12.35
2022-11-04T01:17:33.947Z,12.32
2022-11-04T01:20:00.513Z,12.31
2022-11-04T01:22:26.802Z,12.28
2022-11-04T01:24:53.203Z,12.27
2022-11-04T01:27:19.543Z,12.20
2022-11-04T01:29:45.914Z,12.17
2022-11-04T01:32:12.303Z,12.11
2022-11-04T01:34:42.469Z,12.04
2022-11-04T01:37:10.182Z,11.82
2022-11-04T01:39:36.469Z,11.95
2022-11-04T01:44:42.577Z,11.89
2022-11-04T01:47:20.028Z,11.85
2022-11-04T01:49:49.498Z,11.82
2022-11-04T01:52:18.751Z,11.79
2022-11-04T01:54:46.296Z,11.75
2022-11-04T01:57:15.904Z,11.72
2022-11-04T01:59:42.596Z,11.68
2022-11-04T02:02:09.105Z,11.60
2022-11-04T02:04:36.584Z,11.54
2022-11-04T02:07:05.867Z,11.53
2022-11-04T02:09:33.195Z,11.51
2022-11-04T02:12:19.258Z,11.48
2022-11-04T02:14:46.410Z,11.45
2022-11-04T02:17:18.585Z,11.41
2022-11-04T02:19:51.045Z,11.43
2022-11-04T02:22:36.089Z,11.47
2022-11-04T02:25:17.680Z,11.41
2022-11-04T02:27:53.364Z,11.35
2022-11-04T02:30:21.013Z,11.43
2022-11-04T02:32:59.734Z,11.45
2022-11-04T02:35:35.216Z,11.37
2022-11-04T02:38:10.854Z,11.31
2022-11-04T02:40:43.443Z,11.34
2022-11-04T02:43:30.036Z,11.35
2022-11-04T02:46:03.136Z,11.08
2022-11-04T02:48:32.243Z,11.16
2022-11-04T02:51:01.743Z,11.05
2022-11-04T02:53:41.255Z,10.98
2022-11-04T02:56:08.330Z,10.89
2022-11-04T02:58:37.307Z,10.85
2022-11-04T03:01:04.890Z,10.82
2022-11-04T03:03:33.780Z,10.84
2022-11-04T03:06:01.758Z,10.86
2022-11-04T03:08:31.756Z,10.84
2022-11-04T03:11:18.192Z,10.84
2022-11-04T03:13:54.571Z,10.85
2022-11-04T03:16:26.527Z,10.82
2022-11-04T03:18:58.127Z,10.86
2022-11-04T03:21:26.017Z,10.89
2022-11-04T03:23:53.188Z,10.89
2022-11-04T03:26:42.724Z,10.91
2022-11-04T03:29:17.560Z,10.85
2022-11-04T03:31:46.976Z,10.88
2022-11-04T03:34:13.393Z,10.85
2022-11-04T03:36:39.747Z,10.83
2022-11-04T03:39:06.138Z,10.79
2022-11-04T03:41:35.928Z,10.77
2022-11-04T03:44:02.187Z,10.76
2022-11-04T03:46:28.703Z,10.69
2022-11-04T03:48:55.787Z,10.64
2022-11-04T03:51:22.110Z,10.62
2022-11-04T03:53:48.607Z,10.58
2022-11-04T03:56:28.954Z,10.58
2022-11-04T03:59:13.644Z,10.48
2022-11-04T04:02:04.082Z,10.53
2022-11-04T04:04:32.415Z,10.44
2022-11-04T04:07:05.332Z,10.39
2022-11-04T04:09:38.079Z,10.38
2022-11-04T04:12:17.656Z,10.35
2022-11-04T04:14:49.102Z,10.33
2022-11-04T04:17:34.219Z,10.32
2022-11-04T04:20:02.881Z,10.32
2022-11-04T04:22:31.672Z,10.28
2022-11-04T04:25:18.070Z,10.27
2022-11-04T04:27:44.975Z,10.25
2022-11-04T04:30:15.248Z,10.29
2022-11-04T04:32:43.667Z,10.25
2022-11-04T04:35:28.956Z,10.18
2022-11-04T04:38:18.097Z,10.20
2022-11-04T04:41:05.748Z,10.17
2022-11-04T04:43:50.545Z,10.15
2022-11-04T04:46:16.839Z,10.17
2022-11-04T04:48:43.208Z,10.19
2022-11-04T04:51:09.543Z,10.27
2022-11-04T04:53:36.049Z,10.20
2022-11-04T04:56:02.307Z,10.15
2022-11-04T04:58:28.594Z,10.23
2022-11-04T05:00:54.995Z,10.22
2022-11-04T05:03:21.302Z,10.19
2022-11-04T05:05:47.630Z,10.18
2022-11-04T05:08:13.887Z,10.11
2022-11-04T05:10:40.311Z,9.98
2022-11-04T05:13:25.242Z,9.97
2022-11-04T05:15:51.719Z,9.96
2022-11-04T05:18:17.992Z,9.92
2022-11-04T05:20:44.539Z,9.96
2022-11-04T05:23:12.295Z,9.94
2022-11-04T05:25:42.314Z,9.91
2022-11-04T05:28:09.017Z,9.90
2022-11-04T05:30:35.600Z,9.87
2022-11-04T05:33:04.858Z,9.88
2022-11-04T05:35:32.313Z,9.88
2022-11-04T05:37:58.563Z,9.91
2022-11-04T05:40:25.122Z,9.93
2022-11-04T05:42:51.629Z,9.92
2022-11-04T05:45:18.062Z,9.93
2022-11-04T05:47:44.946Z,9.90
2022-11-04T05:50:11.305Z,9.95
2022-11-04T05:52:37.598Z,9.91
2022-11-04T05:55:04.026Z,9.89
2022-11-04T05:57:30.561Z,9.92
2022-11-04T05:59:56.858Z,9.90
2022-11-04T06:02:23.449Z,9.77
2022-11-04T06:04:49.816Z,9.68
2022-11-04T06:07:16.043Z,9.73
2022-11-04T06:09:42.435Z,9.75
2022-11-04T06:12:10.283Z,9.75
2022-11-04T06:14:37.138Z,9.79
2022-11-04T06:17:03.907Z,9.81
2022-11-04T06:19:30.223Z,9.81
2022-11-04T06:21:56.661Z,9.75
2022-11-04T06:24:23.067Z,9.74
2022-11-04T06:26:49.375Z,9.72
2022-11-04T06:29:15.685Z,9.68
2022-11-04T06:31:42.140Z,9.67
2022-11-04T06:34:08.545Z,9.63
2022-11-04T06:36:34.865Z,9.61
2022-11-04T06:39:04.623Z,9.47
2022-11-04T06:41:31.495Z,9.67
2022-11-04T06:43:57.798Z,9.68
2022-11-04T06:46:29.164Z,9.66
2022-11-04T06:48:56.248Z,9.71
2022-11-04T06:51:22.671Z,9.76
2022-11-04T06:53:48.996Z,9.77
2022-11-04T06:56:15.319Z,9.70
2022-11-04T06:58:41.652Z,10.04
2022-11-04T07:01:13.721Z,10.14
2022-11-04T07:03:42.394Z,10.18
2022-11-04T07:06:09.004Z,10.20
2022-11-04T07:08:35.766Z,10.24
2022-11-04T07:11:02.784Z,10.28
2022-11-04T07:13:29.159Z,10.29
2022-11-04T07:15:55.451Z,10.34
2022-11-04T07:18:21.823Z,10.40
2022-11-04T07:20:48.261Z,10.43
2022-11-04T07:23:14.623Z,10.37
2022-11-04T07:25:40.889Z,10.38
2022-11-04T07:28:07.151Z,10.37
2022-11-04T07:30:33.687Z,10.47
2022-11-04T07:32:59.957Z,10.55
2022-11-04T07:35:26.344Z,10.60
2022-11-04T07:37:52.690Z,10.61
2022-11-04T07:40:18.958Z,10.60
2022-11-04T07:42:45.226Z,10.63
2022-11-04T07:45:11.586Z,10.65
2022-11-04T07:47:37.913Z,10.68
2022-11-04T07:50:10.577Z,10.67
2022-11-04T07:52:37.370Z,10.70
2022-11-04T07:55:03.871Z,10.76
2022-11-04T07:57:30.131Z,10.77
2022-11-04T07:59:56.403Z,10.79
2022-11-04T08:02:27.585Z,10.86
2022-11-04T08:04:56.586Z,10.91
2022-11-04T08:07:22.923Z,10.95
2022-11-04T08:09:49.191Z,10.98
2022-11-04T08:12:15.551Z,10.93
2022-11-04T08:14:41.861Z,11.09
2022-11-04T08:17:08.166Z,11.15
2022-11-04T08:19:34.514Z,11.22
2022-11-04T08:22:00.879Z,11.23
2022-11-04T08:24:27.159Z,11.27
2022-11-04T08:26:53.512Z,11.28
2022-11-04T08:29:19.922Z,11.28
2022-11-04T08:31:46.199Z,11.27
2022-11-04T08:34:12.486Z,11.30
2022-11-04T08:36:40.691Z,11.34
2022-11-04T08:39:10.866Z,11.34
2022-11-04T08:41:38.868Z,11.37
2022-11-04T08:44:05.502Z,11.32
2022-11-04T08:46:33.444Z,11.35
2022-11-04T08:48:59.819Z,11.43
2022-11-04T08:51:26.912Z,11.47
2022-11-04T08:53:54.999Z,11.50
2022-11-04T08:56:23.027Z,11.62
2022-11-04T08:58:49.803Z,11.72
2022-11-04T09:01:16.695Z,11.80
2022-11-04T09:03:43.431Z,11.89
2022-11-04T09:06:11.395Z,11.96
2022-11-04T09:08:39.236Z,11.92
2022-11-04T09:11:09.866Z,11.92
2022-11-04T09:13:39.679Z,11.89
2022-11-04T09:16:07.164Z,11.86
2022-11-04T09:18:33.486Z,11.87
2022-11-04T09:21:00.587Z,11.85
2022-11-04T09:23:26.975Z,11.85
2022-11-04T09:25:53.374Z,11.87
2022-11-04T09:28:19.667Z,11.88
2022-11-04T09:30:47.162Z,11.93
2022-11-04T09:33:13.423Z,12.03
2022-11-04T09:35:39.766Z,12.15
2022-11-04T09:38:06.057Z,12.28
2022-11-04T09:40:33.995Z,12.42
2022-11-04T09:43:12.654Z,12.51
2022-11-04T09:45:39.911Z,12.54
2022-11-04T09:48:08.718Z,12.56
2022-11-04T09:50:45.349Z,12.58
2022-11-04T09:53:21.178Z,12.61
2022-11-04T09:55:58.345Z,12.71
2022-11-04T09:58:24.866Z,12.79
2022-11-04T10:01:01.502Z,12.88
2022-11-04T10:03:40.183Z,12.95
2022-11-04T10:06:26.235Z,13.01
2022-11-04T10:08:56.904Z,13.09
2022-11-04T10:11:26.319Z,13.09
2022-11-04T10:13:58.914Z,13.07
2022-11-04T10:16:31.291Z,13.02
2022-11-04T10:19:16.444Z,13.04
2022-11-04T10:21:46.616Z,13.09
2022-11-04T10:24:16.079Z,13.13
2022-11-04T10:26:46.753Z,13.15
2022-11-04T10:29:22.219Z,13.20
2022-11-04T10:31:48.518Z,13.26
2022-11-04T10:34:27.761Z,13.28
2022-11-04T10:36:55.331Z,13.28
2022-11-04T10:39:29.779Z,13.37
2022-11-04T10:41:58.059Z,13.43
2022-11-04T10:44:26.291Z,13.48
2022-11-04T10:46:52.742Z,13.51
2022-11-04T10:49:26.220Z,13.49
2022-11-04T10:51:56.191Z,13.47
2022-11-04T10:54:22.780Z,13.44
2022-11-04T10:56:56.013Z,13.42
2022-11-04T10:59:30.430Z,13.38
2022-11-04T11:02:01.119Z,13.33
2022-11-04T11:04:29.932Z,13.32
2022-11-04T11:06:58.308Z,13.40
2022-11-04T11:09:29.438Z,13.42
2022-11-04T11:11:58.199Z,13.48
2022-11-04T11:14:27.566Z,13.58
2022-11-04T11:16:54.626Z,13.80
2022-11-04T11:19:22.018Z,13.96
2022-11-04T11:21:55.475Z,14.11
2022-11-04T11:24:23.393Z,14.28
2022-11-04T11:26:51.465Z,14.38
2022-11-04T11:29:42.063Z,14.49
2022-11-04T11:32:32.782Z,14.58
2022-11-04T11:35:02.789Z,14.66
2022-11-04T11:37:32.240Z,14.70
2022-11-04T11:39:58.669Z,14.69
2022-11-04T11:42:26.047Z,14.72
2022-11-04T11:44:54.449Z,14.81
2022-11-04T11:47:22.086Z,14.83
2022-11-04T11:50:05.589Z,14.85
2022-11-04T11:52:32.580Z,14.84
2022-11-04T11:55:17.778Z,14.81
2022-11-04T12:01:02.094Z,14.67
2022-11-04T12:09:37.554Z,14.46
2022-11-04T12:12:16.628Z,14.35
2022-11-04T12:14:51.798Z,14.28
2022-11-04T12:17:37.081Z,14.13
2022-11-04T12:20:11.732Z,14.03
2022-11-04T12:22:48.734Z,14.03
2022-11-04T12:25:35.669Z,14.02
2022-11-04T12:28:10.842Z,14.07
2022-11-04T12:30:50.178Z,14.07
2022-11-04T12:33:35.732Z,14.11
2022-11-04T12:36:26.328Z,14.09
2022-11-04T12:39:02.798Z,14.16
2022-11-04T12:41:52.359Z,14.22
2022-11-04T12:44:27.948Z,14.44
2022-11-04T12:47:07.099Z,14.55
2022-11-04T12:49:51.809Z,14.53
2022-11-04T12:52:39.649Z,14.52
2022-11-04T12:55:06.120Z,14.55
2022-11-04T12:57:35.526Z,14.45
2022-11-04T13:00:02.057Z,14.44
2022-11-04T13:02:39.552Z,14.32
2022-11-04T13:05:09.055Z,14.30
2022-11-04T13:07:40.011Z,14.35
2022-11-04T13:10:11.249Z,14.42
2022-11-04T13:12:43.606Z,14.38
2022-11-04T13:15:12.934Z,14.39
2022-11-04T13:17:40.147Z,14.32
2022-11-04T13:20:15.634Z,14.04
2022-11-04T13:22:50.147Z,14.21
2022-11-04T13:25:25.764Z,14.19
2022-11-04T13:27:52.418Z,14.12
2022-11-04T13:30:25.769Z,14.17
2022-11-04T13:33:18.715Z,14.22
2022-11-04T13:36:03.820Z,14.28
2022-11-04T13:38:39.048Z,14.31
2022-11-04T13:41:10.373Z,14.34
2022-11-04T13:43:39.747Z,14.40
2022-11-04T13:46:17.288Z,14.39
2022-11-04T13:48:53.080Z,14.33
2022-11-04T13:51:19.877Z,14.35
2022-11-04T13:53:57.866Z,14.30
2022-11-04T13:56:33.302Z,14.34
2022-11-04T13:59:03.025Z,14.33
2022-11-04T14:01:31.404Z,14.32
2022-11-04T14:04:13.112Z,14.36
2022-11-04T14:06:48.695Z,14.40
2022-11-04T14:09:35.500Z,14.38
2022-11-04T14:12:10.960Z,14.44
2022-11-04T14:14:38.370Z,14.36
2022-11-04T14:17:07.240Z,14.30
2022-11-04T14:19:47.566Z,14.31
2022-11-04T14:22:15.074Z,14.31
2022-11-04T14:24:41.811Z,14.31
2022-11-04T14:27:24.144Z,14.28
2022-11-04T14:29:52.779Z,14.22
2022-11-04T14:32:25.302Z,14.21
2022-11-04T14:34:59.902Z,14.22
2022-11-04T14:37:30.480Z,14.13
2022-11-04T14:39:58.936Z,14.07
2022-11-04T14:42:43.908Z,14.10
2022-11-04T14:45:15.322Z,13.91
2022-11-04T14:47:42.752Z,14.02
2022-11-04T14:50:16.997Z,13.97
2022-11-04T14:52:43.256Z,13.94
2022-11-04T14:55:18.093Z,13.89
2022-11-04T14:57:45.995Z,13.84
2022-11-04T15:00:21.107Z,13.79
2022-11-04T15:02:47.687Z,13.71
2022-11-04T15:05:24.860Z,13.66
2022-11-04T15:07:51.287Z,13.67
2022-11-04T15:10:20.443Z,13.63
2022-11-04T15:12:54.450Z,13.61
2022-11-04T15:15:28.605Z,13.56
2022-11-04T15:18:18.244Z,13.56
2022-11-04T15:20:49.434Z,13.53
2022-11-04T15:23:17.291Z,13.53
2022-11-04T15:25:44.672Z,13.47
2022-11-04T15:28:18.810Z,13.45
2022-11-04T15:30:56.161Z,13.22
2022-11-04T15:33:24.993Z,13.43
2022-11-04T15:35:52.043Z,13.39
2022-11-04T15:38:18.628Z,13.39
2022-11-04T15:40:45.842Z,13.38
2022-11-04T15:43:14.423Z,13.36
2022-11-04T15:45:46.858Z,13.31
2022-11-04T15:48:25.874Z,13.22
2022-11-04T15:50:58.480Z,13.11
2022-11-04T15:53:24.981Z,13.17
2022-11-04T15:55:51.618Z,13.08
2022-11-04T15:58:18.708Z,13.08
2022-11-04T16:00:51.931Z,13.03
2022-11-04T16:03:19.121Z,13.02
2022-11-04T16:05:59.734Z,13.05
2022-11-04T16:08:29.063Z,13.00
2022-11-04T16:11:15.692Z,12.96
2022-11-04T16:13:42.804Z,12.98
2022-11-04T16:16:35.492Z,12.99
2022-11-04T16:19:01.846Z,12.97
2022-11-04T16:21:33.368Z,12.98
2022-11-04T16:24:02.799Z,12.93
2022-11-04T16:26:31.518Z,12.93
2022-11-04T16:28:59.161Z,12.94
2022-11-04T16:31:27.449Z,12.93
2022-11-04T16:33:54.459Z,12.89
2022-11-04T16:36:23.800Z,12.87
2022-11-04T16:38:57.650Z,12.85
2022-11-04T16:41:27.790Z,12.85
2022-11-04T16:43:54.712Z,12.83
2022-11-04T16:46:21.940Z,12.79
2022-11-04T16:48:49.424Z,12.73
2022-11-04T16:51:20.164Z,12.71
2022-11-04T16:53:48.966Z,12.69
2022-11-04T16:56:16.039Z,12.66
2022-11-04T16:58:42.412Z,12.66
2022-11-04T17:01:12.941Z,12.58
2022-11-04T17:03:39.625Z,12.49
2022-11-04T17:06:06.532Z,12.45
2022-11-04T17:08:33.048Z,12.45
2022-11-04T17:10:59.441Z,12.45
2022-11-04T17:13:25.912Z,12.41
2022-11-04T17:15:52.420Z,12.51
2022-11-04T17:18:18.801Z,12.59
2022-11-04T17:20:47.303Z,12.59
2022-11-04T17:23:14.663Z,12.62
2022-11-04T17:25:41.521Z,12.68
2022-11-04T17:28:07.820Z,12.65
2022-11-04T17:30:34.236Z,12.68
2022-11-04T17:33:01.052Z,12.67
2022-11-04T17:35:27.945Z,12.70
2022-11-04T17:37:54.694Z,12.76
2022-11-04T17:40:21.770Z,12.74
2022-11-04T17:43:11.552Z,12.74
2022-11-04T17:45:39.023Z,12.75
2022-11-04T17:48:05.442Z,12.82
2022-11-04T17:50:32.243Z,12.81
2022-11-04T17:52:58.656Z,12.78
2022-11-04T17:55:27.730Z,12.80
2022-11-04T17:57:54.577Z,12.76
2022-11-04T18:00:24.271Z,12.65
2022-11-04T18:02:51.060Z,12.53
2022-11-04T18:05:17.543Z,12.47
2022-11-04T18:07:43.853Z,12.44
2022-11-04T18:10:10.263Z,12.36
2022-11-04T18:12:36.971Z,12.32
2022-11-04T18:15:04.438Z,12.32
2022-11-04T18:17:30.920Z,12.29
2022-11-04T18:19:57.319Z,12.30
2022-11-04T18:22:23.860Z,12.29
2022-11-04T18:24:50.369Z,12.28
2022-11-04T18:27:16.696Z,12.25
2022-11-04T18:29:43.007Z,12.25
2022-11-04T18:32:09.405Z,12.27
2022-11-04T18:34:35.821Z,12.20
2022-11-04T18:37:02.530Z,12.19
2022-11-04T18:39:29.034Z,12.24
2022-11-04T18:41:55.313Z,12.28
2022-11-04T18:44:22.551Z,12.30
2022-11-04T18:46:49.428Z,12.29
2022-11-04T18:49:16.761Z,12.24
2022-11-04T18:51:43.501Z,12.19
2022-11-04T18:54:10.711Z,12.16
2022-11-04T18:56:37.086Z,12.05
2022-11-04T18:59:03.884Z,12.01
2022-11-04T19:01:34.066Z,11.98
2022-11-04T19:04:00.883Z,11.99
2022-11-04T19:06:28.614Z,11.94
2022-11-04T19:08:56.179Z,11.98
2022-11-04T19:11:24.151Z,11.96
2022-11-04T19:13:57.518Z,11.94
2022-11-04T19:16:25.137Z,11.92
2022-11-04T19:18:51.662Z,11.92
2022-11-04T19:21:18.712Z,11.93
2022-11-04T19:23:45.114Z,11.71
2022-11-04T19:26:12.797Z,11.91
2022-11-04T19:28:47.720Z,11.94
2022-11-04T19:31:16.254Z,11.91
2022-11-04T19:33:42.644Z,11.96
2022-11-04T19:36:09.872Z,11.97
2022-11-04T19:38:36.560Z,11.94
2022-11-04T19:41:07.112Z,11.92
2022-11-04T19:43:33.627Z,11.92
2022-11-04T19:46:04.280Z,11.91
2022-11-04T19:48:31.261Z,11.93
2022-11-04T19:50:57.648Z,11.86
2022-11-04T19:53:24.008Z,11.84
2022-11-04T19:55:52.149Z,11.81
2022-11-04T19:58:19.153Z,11.81
2022-11-04T20:00:47.091Z,11.75
2022-11-04T20:03:14.272Z,11.71
2022-11-04T20:05:41.751Z,11.71
2022-11-04T20:08:08.970Z,11.72
2022-11-04T20:10:38.087Z,11.73
2022-11-04T20:13:23.057Z,11.79
2022-11-04T20:15:49.730Z,11.73
2022-11-04T20:18:16.155Z,11.74
2022-11-04T20:20:42.488Z,11.73
2022-11-04T20:23:08.955Z,11.68
2022-11-04T20:25:35.317Z,11.66
2022-11-04T20:28:01.960Z,11.65
2022-11-04T20:30:28.288Z,11.67
2022-11-04T20:32:54.671Z,11.69
2022-11-04T20:35:21.694Z,11.69
2022-11-04T20:37:48.033Z,11.74
2022-11-04T20:40:14.531Z,11.69
2022-11-04T20:42:47.804Z,11.67
2022-11-04T20:45:19.073Z,11.71
2022-11-04T20:47:45.893Z,11.68
2022-11-04T20:50:12.417Z,11.68
2022-11-04T20:52:38.756Z,11.67
2022-11-04T20:55:06.113Z,11.64
2022-11-04T20:57:33.647Z,11.66
2022-11-04T20:59:59.994Z,11.64
2022-11-04T21:02:26.738Z,11.65
2022-11-04T21:04:53.542Z,11.61
2022-11-04T21:07:19.979Z,11.58
2022-11-04T21:09:46.379Z,11.56
2022-11-04T21:12:12.816Z,11.55
2022-11-04T21:14:39.135Z,11.56
2022-11-04T21:17:05.789Z,11.56
2022-11-04T21:19:32.071Z,11.54
2022-11-04T21:21:58.430Z,11.51
2022-11-04T21:24:24.781Z,11.51
2022-11-04T21:26:51.191Z,11.53
2022-11-04T21:29:19.271Z,11.53
2022-11-04T21:31:46.377Z,11.54
2022-11-04T21:34:13.251Z,11.60
2022-11-04T21:36:39.999Z,11.62
2022-11-04T21:39:06.473Z,11.63
2022-11-04T21:41:33.596Z,11.60
2022-11-04T21:44:01.223Z,11.58
2022-11-04T21:46:28.574Z,11.58
2022-11-04T21:48:55.150Z,11.64
2022-11-04T21:51:23.010Z,11.68
2022-11-04T21:53:49.400Z,11.70
2022-11-04T21:56:17.206Z,11.69
2022-11-04T21:58:44.091Z,11.68
2022-11-04T22:01:11.609Z,11.73
2022-11-04T22:03:38.035Z,11.71
2022-11-04T22:06:08.545Z,11.66
2022-11-04T22:08:35.355Z,11.67
2022-11-04T22:11:05.918Z,11.68
2022-11-04T22:13:32.359Z,11.69
2022-11-04T22:15:58.677Z,11.47
2022-11-04T22:18:25.603Z,11.71
2022-11-04T22:20:52.218Z,11.71
2022-11-04T22:23:18.605Z,11.74
2022-11-04T22:25:49.888Z,11.74
2022-11-04T22:28:16.782Z,11.72
2022-11-04T22:30:43.483Z,11.66
2022-11-04T22:33:10.252Z,11.66
2022-11-04T22:35:36.975Z,11.68
2022-11-04T22:38:06.135Z,11.67
2022-11-04T22:40:33.515Z,11.64
2022-11-04T22:43:00.159Z,11.62
2022-11-04T22:45:26.499Z,11.63
2022-11-04T22:47:55.474Z,11.57
2022-11-04T22:50:21.785Z,11.58
2022-11-04T22:52:48.223Z,11.54
2022-11-04T22:55:14.623Z,11.53
2022-11-04T22:57:41.259Z,11.48
2022-11-04T23:00:08.033Z,11.48
2022-11-04T23:02:37.045Z,11.47
2022-11-04T23:05:03.978Z,11.46
2022-11-04T23:07:30.705Z,11.45
2022-11-04T23:10:15.737Z,11.41
2022-11-04T23:13:00.579Z,11.42
2022-11-04T23:15:45.426Z,11.40
2022-11-04T23:18:31.357Z,11.35
2022-11-04T23:21:16.463Z,11.30
2022-11-04T23:24:01.853Z,11.27
2022-11-04T23:26:28.539Z,11.30
2022-11-04T23:29:13.546Z,11.34
2022-11-04T23:31:39.866Z,11.22
2022-11-04T23:34:24.926Z,11.14
2022-11-04T23:37:13.298Z,11.10
2022-11-04T23:39:40.780Z,11.07
2022-11-04T23:42:16.229Z,11.01
2022-11-04T23:45:09.151Z,10.97
2022-11-04T23:47:56.437Z,10.98
2022-11-04T23:50:42.560Z,11.03
2022-11-04T23:53:29.770Z,11.05
2022-11-04T23:56:14.698Z,11.05
2022-11-04T23:58:59.830Z,11.02
